createdAt,value
2022-11-12T00:01:08.522Z,63.90
2022-11-12T00:03:35.533Z,63.80
2022-11-12T00:06:02.319Z,63.80
2022-11-12T00:08:29.504Z,63.80
2022-11-12T00:10:56.491Z,63.70
2022-11-12T00:13:23.246Z,63.80
2022-11-12T00:15:50.073Z,63.70
2022-11-12T00:18:16.798Z,63.70
2022-11-12T00:20:44.474Z,63.70
2022-11-12T00:23:11.263Z,63.70
2022-11-12T00:25:38.079Z,63.60
2022-11-12T00:28:10.081Z,63.70
2022-11-12T00:30:40.976Z,63.60
2022-11-12T00:33:08.129Z,63.60
2022-11-12T00:35:35.075Z,63.60
2022-11-12T00:38:02.041Z,63.50
2022-11-12T00:40:29.083Z,63.50
2022-11-12T00:42:55.859Z,63.60
2022-11-12T00:45:23.281Z,63.50
2022-11-12T00:47:50.094Z,63.50
2022-11-12T00:50:17.107Z,63.50
2022-11-12T00:52:43.923Z,63.50
2022-11-12T00:55:11.544Z,63.40
2022-11-12T00:57:38.581Z,63.50
2022-11-12T01:00:09.090Z,63.70
2022-11-12T01:02:41.639Z,63.40
2022-11-12T01:05:11.072Z,63.50
2022-11-12T01:07:38.210Z,63.40
2022-11-12T01:10:05.487Z,63.40
2022-11-12T01:12:33.154Z,63.50
2022-11-12T01:15:03.040Z,63.40
2022-11-12T01:17:30.197Z,63.40
2022-11-12T01:19:56.888Z,63.40
2022-11-12T01:22:24.222Z,63.40
2022-11-12T01:24:50.966Z,63.40
2022-11-12T01:27:20.082Z,63.40
2022-11-12T01:29:46.885Z,63.40
2022-11-12T01:32:14.185Z,63.30
2022-11-12T01:34:41.378Z,63.30
2022-11-12T01:37:08.111Z,63.30
2022-11-12T01:39:34.840Z,63.40
2022-11-12T01:42:02.103Z,63.30
2022-11-12T01:44:39.632Z,63.30
2022-11-12T01:47:25.486Z,63.20
2022-11-12T01:50:14.989Z,63.30
2022-11-12T01:52:48.016Z,63.30
2022-11-12T01:55:21.318Z,63.30
2022-11-12T01:57:53.964Z,63.10
2022-11-12T02:00:20.725Z,63.30
2022-11-12T02:02:55.207Z,63.20
2022-11-12T02:05:23.183Z,63.10
2022-11-12T02:07:51.304Z,63.20
2022-11-12T02:10:18.142Z,63.00
2022-11-12T02:13:04.071Z,63.00
2022-11-12T02:15:31.059Z,63.10
2022-11-12T02:17:57.832Z,63.10
2022-11-12T02:20:24.721Z,63.00
2022-11-12T02:22:51.541Z,63.00
2022-11-12T02:25:22.163Z,63.10
2022-11-12T02:27:51.922Z,63.00
2022-11-12T02:30:31.428Z,63.00
2022-11-12T02:32:58.823Z,63.00
2022-11-12T02:35:28.119Z,63.00
2022-11-12T02:37:54.866Z,63.00
2022-11-12T02:40:22.339Z,63.00
2022-11-12T02:42:49.114Z,63.10
2022-11-12T02:45:16.773Z,63.00
2022-11-12T02:47:43.631Z,63.00
2022-11-12T02:50:11.143Z,62.90
2022-11-12T02:52:39.790Z,62.80
2022-11-12T02:55:08.529Z,62.80
2022-11-12T02:57:36.490Z,62.90
2022-11-12T03:00:09.115Z,63.50
2022-11-12T03:02:42.511Z,62.90
2022-11-12T03:05:12.601Z,62.80
2022-11-12T03:07:39.938Z,62.80
2022-11-12T03:10:08.002Z,62.80
2022-11-12T03:12:34.709Z,62.80
2022-11-12T03:15:01.483Z,62.90
2022-11-12T03:17:28.268Z,62.70
2022-11-12T03:19:55.046Z,63.30
2022-11-12T03:22:21.795Z,62.80
2022-11-12T03:24:48.514Z,62.70
2022-11-12T03:27:15.577Z,62.70
2022-11-12T03:29:42.307Z,62.70
2022-11-12T03:32:09.041Z,62.70
2022-11-12T03:34:35.771Z,62.80
2022-11-12T03:37:03.072Z,62.60
2022-11-12T03:39:29.847Z,62.70
2022-11-12T03:41:56.555Z,62.60
2022-11-12T03:44:23.293Z,62.70
2022-11-12T03:46:50.449Z,62.50
2022-11-12T03:49:17.186Z,62.70
2022-11-12T03:51:43.926Z,62.60
2022-11-12T03:54:10.699Z,62.60
2022-11-12T03:56:37.423Z,62.60
2022-11-12T03:59:04.354Z,62.70
2022-11-12T04:01:31.603Z,62.50
2022-11-12T04:03:58.504Z,62.50
2022-11-12T04:06:44.047Z,62.60
2022-11-12T04:09:10.845Z,62.50
2022-11-12T04:11:37.583Z,62.60
2022-11-12T04:14:04.530Z,62.40
2022-11-12T04:16:49.637Z,62.50
2022-11-12T04:19:35.115Z,62.40
2022-11-12T04:22:09.142Z,62.50
2022-11-12T04:24:57.065Z,62.40
2022-11-12T04:27:27.860Z,62.50
2022-11-12T04:30:13.783Z,62.50
2022-11-12T04:32:54.680Z,62.40
2022-11-12T04:35:23.357Z,62.40
2022-11-12T04:37:50.473Z,62.50
2022-11-12T04:40:45.813Z,62.40
2022-11-12T04:43:34.212Z,62.40
2022-11-12T04:46:02.548Z,62.40
2022-11-12T04:48:29.634Z,62.40
2022-11-12T04:51:02.169Z,62.40
2022-11-12T04:53:29.990Z,62.30
2022-11-12T04:55:58.635Z,62.40
2022-11-12T04:58:25.907Z,62.40
2022-11-12T05:00:52.983Z,62.40
2022-11-12T05:03:19.820Z,62.30
2022-11-12T05:05:46.561Z,62.30
2022-11-12T05:08:13.308Z,62.20
2022-11-12T05:10:40.062Z,62.20
2022-11-12T05:13:06.766Z,62.30
2022-11-12T05:15:33.505Z,62.20
2022-11-12T05:18:00.219Z,62.20
2022-11-12T05:20:26.971Z,62.30
2022-11-12T05:23:06.073Z,62.20
2022-11-12T05:25:35.566Z,62.20
2022-11-12T05:28:02.357Z,62.20
2022-11-12T05:30:29.562Z,62.20
2022-11-12T05:32:58.497Z,62.20
2022-11-12T05:35:25.233Z,62.10
2022-11-12T05:37:51.952Z,62.00
2022-11-12T05:40:18.716Z,62.00
2022-11-12T05:42:45.538Z,62.00
2022-11-12T05:45:12.316Z,62.70
2022-11-12T05:47:39.017Z,62.00
2022-11-12T05:50:06.226Z,62.10
2022-11-12T05:52:32.935Z,62.10
2022-11-12T05:54:59.637Z,62.00
2022-11-12T05:57:27.907Z,62.00
2022-11-12T05:59:54.577Z,61.90
2022-11-12T06:02:21.409Z,61.90
2022-11-12T06:04:48.232Z,62.00
2022-11-12T06:07:15.022Z,62.00
2022-11-12T06:09:41.790Z,61.90
2022-11-12T06:12:08.594Z,62.00
2022-11-12T06:14:35.349Z,62.00
2022-11-12T06:17:02.071Z,61.90
2022-11-12T06:19:28.793Z,61.90
2022-11-12T06:21:55.522Z,62.00
2022-11-12T06:24:22.381Z,62.00
2022-11-12T06:26:49.283Z,61.90
2022-11-12T06:29:16.430Z,61.90
2022-11-12T06:31:43.134Z,62.60
2022-11-12T06:34:09.945Z,61.90
2022-11-12T06:36:36.654Z,61.90
2022-11-12T06:39:04.278Z,61.90
2022-11-12T06:41:31.005Z,61.80
2022-11-12T06:43:57.775Z,61.80
2022-11-12T06:46:24.503Z,61.80
2022-11-12T06:48:51.247Z,61.90
2022-11-12T06:51:20.477Z,61.80
2022-11-12T06:53:48.208Z,61.80
2022-11-12T06:56:16.125Z,61.80
2022-11-12T06:58:43.371Z,61.80
2022-11-12T07:01:15.503Z,61.80
2022-11-12T07:03:44.134Z,61.80
2022-11-12T07:06:13.684Z,61.80
2022-11-12T07:08:41.099Z,61.80
2022-11-12T07:11:08.208Z,61.80
2022-11-12T07:13:36.026Z,61.70
2022-11-12T07:16:04.439Z,61.70
2022-11-12T07:18:32.500Z,61.70
2022-11-12T07:21:08.807Z,61.90
2022-11-12T07:23:36.885Z,61.70
2022-11-12T07:26:21.819Z,61.70
2022-11-12T07:28:50.264Z,61.70
2022-11-12T07:31:18.931Z,61.60
2022-11-12T07:33:46.241Z,61.70
2022-11-12T07:36:15.729Z,61.60
2022-11-12T07:38:43.609Z,61.70
2022-11-12T07:41:15.853Z,61.70
2022-11-12T07:43:44.386Z,61.70
2022-11-12T07:46:16.886Z,61.70
2022-11-12T07:48:44.949Z,61.60
2022-11-12T07:51:18.336Z,61.70
2022-11-12T07:53:46.302Z,61.70
2022-11-12T07:56:15.669Z,62.20
2022-11-12T07:58:42.905Z,61.60
2022-11-12T08:01:32.291Z,61.60
2022-11-12T08:04:03.795Z,61.60
2022-11-12T08:06:31.759Z,61.50
2022-11-12T08:09:01.148Z,61.60
2022-11-12T08:11:27.937Z,61.60
2022-11-12T08:13:54.806Z,61.70
2022-11-12T08:16:21.663Z,61.60
2022-11-12T08:18:48.819Z,61.60
2022-11-12T08:21:17.544Z,61.50
2022-11-12T08:23:44.775Z,61.60
2022-11-12T08:26:14.014Z,61.60
2022-11-12T08:28:40.806Z,61.70
2022-11-12T08:31:11.883Z,61.60
2022-11-12T08:33:39.357Z,61.60
2022-11-12T08:36:09.467Z,61.70
2022-11-12T08:38:37.303Z,61.70
2022-11-12T08:41:09.144Z,61.70
2022-11-12T08:43:36.661Z,61.70
2022-11-12T08:46:10.528Z,61.80
2022-11-12T08:48:43.378Z,61.80
2022-11-12T08:51:10.220Z,61.80
2022-11-12T08:53:37.001Z,61.70
2022-11-12T08:56:03.955Z,61.90
2022-11-12T08:58:30.922Z,61.80
2022-11-12T09:01:03.662Z,61.80
2022-11-12T09:03:30.374Z,61.90
2022-11-12T09:05:57.106Z,61.80
2022-11-12T09:08:27.902Z,61.90
2022-11-12T09:10:57.706Z,61.90
2022-11-12T09:13:24.464Z,62.00
2022-11-12T09:15:51.259Z,61.90
2022-11-12T09:18:18.796Z,62.00
2022-11-12T09:20:46.103Z,62.00
2022-11-12T09:23:16.190Z,62.00
2022-11-12T09:25:43.479Z,62.00
2022-11-12T09:28:17.482Z,62.00
2022-11-12T09:30:49.643Z,62.00
2022-11-12T09:33:23.181Z,62.00
2022-11-12T09:35:51.298Z,62.50
2022-11-12T09:38:19.037Z,61.90
2022-11-12T09:40:51.636Z,61.90
2022-11-12T09:43:34.183Z,61.90
2022-11-12T09:46:27.259Z,61.90
2022-11-12T09:49:21.122Z,62.00
2022-11-12T09:51:57.346Z,62.00
2022-11-12T09:54:35.293Z,62.00
2022-11-12T09:57:02.921Z,62.70
2022-11-12T09:59:36.273Z,62.10
2022-11-12T10:02:18.067Z,62.30
2022-11-12T10:05:10.334Z,62.30
2022-11-12T10:08:05.066Z,62.30
2022-11-12T10:10:54.308Z,62.40
2022-11-12T10:13:26.241Z,62.50
2022-11-12T10:16:17.515Z,62.50
2022-11-12T10:19:05.180Z,62.60
2022-11-12T10:21:53.334Z,62.60
2022-11-12T10:24:22.615Z,62.60
2022-11-12T10:26:53.330Z,62.70
2022-11-12T10:29:32.151Z,62.70
2022-11-12T10:32:02.263Z,62.70
2022-11-12T10:34:31.102Z,62.80
2022-11-12T10:37:04.509Z,62.80
2022-11-12T10:39:38.367Z,62.90
2022-11-12T10:42:09.208Z,63.00
2022-11-12T10:44:37.031Z,62.90
2022-11-12T10:47:21.782Z,63.00
2022-11-12T10:50:26.247Z,63.00
2022-11-12T10:52:54.039Z,63.10
2022-11-12T10:55:23.555Z,63.60
2022-11-12T10:58:12.085Z,63.20
2022-11-12T11:00:56.367Z,63.20
2022-11-12T11:03:44.609Z,63.20
2022-11-12T11:06:14.435Z,63.30
2022-11-12T11:08:45.193Z,63.30
2022-11-12T11:11:31.518Z,63.40
2022-11-12T11:14:28.931Z,63.30
2022-11-12T11:17:00.457Z,63.40
2022-11-12T11:19:39.686Z,63.40
2022-11-12T11:22:21.322Z,63.40
2022-11-12T11:24:59.153Z,63.50
2022-11-12T11:28:07.686Z,63.50
2022-11-12T11:30:36.914Z,63.50
2022-11-12T11:33:29.825Z,63.60
2022-11-12T11:36:09.844Z,63.60
2022-11-12T11:39:19.343Z,63.70
2022-11-12T11:42:31.365Z,63.70
2022-11-12T11:45:11.618Z,63.80
2022-11-12T11:48:01.979Z,63.80
2022-11-12T11:50:46.398Z,63.90
2022-11-12T11:53:43.503Z,63.90
2022-11-12T11:56:36.250Z,64.00
2022-11-12T11:59:36.097Z,64.00
2022-11-12T12:02:02.757Z,64.00
2022-11-12T12:04:44.386Z,64.00
2022-11-12T12:08:12.986Z,64.10
2022-11-12T12:11:18.187Z,64.10
2022-11-12T12:13:51.564Z,64.10
2022-11-12T12:16:26.371Z,64.20
2022-11-12T12:18:58.990Z,64.20
2022-11-12T12:21:31.945Z,64.30
2022-11-12T12:24:10.370Z,64.30
2022-11-12T12:26:48.074Z,64.30
2022-11-12T12:29:32.816Z,64.30
2022-11-12T12:32:10.165Z,64.40
2022-11-12T12:34:47.803Z,64.30
2022-11-12T12:37:32.507Z,64.40
2022-11-12T12:40:25.444Z,64.40
2022-11-12T12:43:34.753Z,64.40
2022-11-12T12:46:02.935Z,64.40
2022-11-12T12:48:32.044Z,64.50
2022-11-12T12:50:58.963Z,64.50
2022-11-12T12:53:25.617Z,64.50
2022-11-12T12:55:58.146Z,64.50
2022-11-12T12:58:31.407Z,64.60
2022-11-12T13:01:20.085Z,64.60
2022-11-12T13:04:08.889Z,64.60
2022-11-12T13:06:46.170Z,64.60
2022-11-12T13:09:13.387Z,64.60
2022-11-12T13:12:01.699Z,64.60
2022-11-12T13:14:37.321Z,64.70
2022-11-12T13:17:05.766Z,64.60
2022-11-12T13:19:32.443Z,64.70
2022-11-12T13:22:18.032Z,64.70
2022-11-12T13:25:04.010Z,64.70
2022-11-12T13:27:45.707Z,64.80
2022-11-12T13:30:18.748Z,64.80
2022-11-12T13:32:49.087Z,64.90
2022-11-12T13:35:20.598Z,64.90
2022-11-12T13:37:48.892Z,64.90
2022-11-12T13:40:17.050Z,64.90
2022-11-12T13:42:50.134Z,64.90
2022-11-12T13:45:23.928Z,64.90
2022-11-12T13:47:51.873Z,64.90
2022-11-12T13:50:22.259Z,64.90
2022-11-12T13:52:49.920Z,65.00
2022-11-12T13:55:22.249Z,65.00
2022-11-12T13:57:55.994Z,65.00
2022-11-12T14:00:27.759Z,65.00
2022-11-12T14:02:56.731Z,65.00
2022-11-12T14:05:27.810Z,65.10
2022-11-12T14:08:30.137Z,65.10
2022-11-12T14:11:47.695Z,65.20
2022-11-12T14:14:23.458Z,65.20
2022-11-12T14:17:05.521Z,65.20
2022-11-12T14:20:01.846Z,65.30
2022-11-12T14:22:38.333Z,65.30
2022-11-12T14:25:32.756Z,65.40
2022-11-12T14:28:01.948Z,65.40
2022-11-12T14:30:32.208Z,65.40
2022-11-12T14:33:07.535Z,65.50
2022-11-12T14:35:39.712Z,65.50
2022-11-12T14:38:11.360Z,65.50
2022-11-12T14:41:06.009Z,65.60
2022-11-12T14:43:50.126Z,65.60
2022-11-12T14:46:28.884Z,65.60
2022-11-12T14:49:01.384Z,65.70
2022-11-12T14:51:32.055Z,65.60
2022-11-12T14:54:14.167Z,65.70
2022-11-12T14:56:44.833Z,65.70
2022-11-12T14:59:13.872Z,65.80
2022-11-12T15:04:54.873Z,65.80
2022-11-12T15:07:50.181Z,65.80
2022-11-12T15:10:32.459Z,65.90
2022-11-12T15:13:05.531Z,65.90
2022-11-12T15:15:34.187Z,65.90
2022-11-12T15:18:07.253Z,65.90
2022-11-12T15:20:34.166Z,66.00
2022-11-12T15:23:03.651Z,66.00
2022-11-12T15:25:32.010Z,66.10
2022-11-12T15:28:22.094Z,66.00
2022-11-12T15:31:17.196Z,66.10
2022-11-12T15:33:43.974Z,66.10
2022-11-12T15:36:23.296Z,66.10
2022-11-12T15:38:54.378Z,66.20
2022-11-12T15:41:30.555Z,66.20
2022-11-12T15:43:57.440Z,66.20
2022-11-12T15:46:24.216Z,66.20
2022-11-12T15:48:55.788Z,66.30
2022-11-12T15:51:23.032Z,66.30
2022-11-12T15:53:49.727Z,66.30
2022-11-12T15:56:19.259Z,66.30
2022-11-12T15:58:46.109Z,66.30
2022-11-12T16:01:12.984Z,66.90
2022-11-12T16:03:39.810Z,66.30
2022-11-12T16:06:09.316Z,66.40
2022-11-12T16:08:36.388Z,66.40
2022-11-12T16:11:03.572Z,66.50
2022-11-12T16:13:36.080Z,66.50
2022-11-12T16:16:06.395Z,66.40
2022-11-12T16:18:33.595Z,66.50
2022-11-12T16:21:00.340Z,66.50
2022-11-12T16:23:27.278Z,66.50
2022-11-12T16:25:54.762Z,66.60
2022-11-12T16:28:21.495Z,66.60
2022-11-12T16:30:48.619Z,66.60
2022-11-12T16:33:21.256Z,66.70
2022-11-12T16:35:48.032Z,66.60
2022-11-12T16:38:16.167Z,66.70
2022-11-12T16:40:44.780Z,66.60
2022-11-12T16:43:11.653Z,66.70
2022-11-12T16:45:40.994Z,66.70
2022-11-12T16:48:16.587Z,66.70
2022-11-12T16:50:43.936Z,66.70
2022-11-12T16:53:10.668Z,66.70
2022-11-12T16:55:37.462Z,66.80
2022-11-12T16:58:04.265Z,66.70
2022-11-12T17:00:30.997Z,66.80
2022-11-12T17:02:57.782Z,66.70
2022-11-12T17:05:25.815Z,66.80
2022-11-12T17:07:57.717Z,66.80
2022-11-12T17:10:25.286Z,66.80
2022-11-12T17:12:52.714Z,66.80
2022-11-12T17:15:19.511Z,66.90
2022-11-12T17:17:46.304Z,66.90
2022-11-12T17:20:13.158Z,66.80
2022-11-12T17:22:40.056Z,66.80
2022-11-12T17:25:09.375Z,66.80
2022-11-12T17:27:36.197Z,66.90
2022-11-12T17:30:04.087Z,66.90
2022-11-12T17:32:32.953Z,66.90
2022-11-12T17:34:59.690Z,66.90
2022-11-12T17:37:26.480Z,66.80
2022-11-12T17:39:53.215Z,66.90
2022-11-12T17:42:20.030Z,66.90
2022-11-12T17:44:46.835Z,66.90
2022-11-12T17:47:13.553Z,66.90
2022-11-12T17:49:40.498Z,66.90
2022-11-12T17:52:07.339Z,66.80
2022-11-12T17:54:35.263Z,67.00
2022-11-12T17:57:02.000Z,66.80
2022-11-12T17:59:28.741Z,66.90
2022-11-12T18:01:55.576Z,66.80
2022-11-12T18:04:23.770Z,66.80
2022-11-12T18:06:52.827Z,66.90
2022-11-12T18:09:19.577Z,66.90
2022-11-12T18:11:49.202Z,66.90
2022-11-12T18:14:16.627Z,66.80
2022-11-12T18:16:44.175Z,66.90
2022-11-12T18:19:12.459Z,66.90
2022-11-12T18:21:39.957Z,66.90
2022-11-12T18:24:07.809Z,66.80
2022-11-12T18:26:34.964Z,66.80
2022-11-12T18:29:01.733Z,66.80
2022-11-12T18:31:28.683Z,66.80
2022-11-12T18:33:55.873Z,66.80
2022-11-12T18:36:25.707Z,66.80
2022-11-12T18:38:54.751Z,66.80
2022-11-12T18:41:25.714Z,66.80
2022-11-12T18:43:56.313Z,66.80
2022-11-12T18:46:23.591Z,66.80
2022-11-12T18:48:50.720Z,66.80
2022-11-12T18:51:19.126Z,66.80
2022-11-12T18:53:46.766Z,66.80
2022-11-12T18:56:18.955Z,67.40
2022-11-12T18:58:46.743Z,66.80
2022-11-12T19:01:18.509Z,66.70
2022-11-12T19:03:45.314Z,66.80
2022-11-12T19:06:13.890Z,66.80
2022-11-12T19:08:40.835Z,66.80
2022-11-12T19:11:10.304Z,66.70
2022-11-12T19:13:37.755Z,66.80
2022-11-12T19:16:11.792Z,66.70
2022-11-12T19:18:42.241Z,66.80
2022-11-12T19:21:12.362Z,66.70
2022-11-12T19:23:39.503Z,66.70
2022-11-12T19:26:07.697Z,66.80
2022-11-12T19:28:35.224Z,66.70
2022-11-12T19:31:06.527Z,66.80
2022-11-12T19:33:34.271Z,66.70
2022-11-12T19:36:06.726Z,66.70
2022-11-12T19:38:33.946Z,66.70
2022-11-12T19:41:09.956Z,66.70
2022-11-12T19:43:41.498Z,66.80
2022-11-12T19:46:09.523Z,66.60
2022-11-12T19:48:36.553Z,66.70
2022-11-12T19:51:05.458Z,66.70
2022-11-12T19:53:38.035Z,66.60
2022-11-12T19:56:06.658Z,66.60
2022-11-12T19:58:34.214Z,66.60
2022-11-12T20:01:05.378Z,67.20
2022-11-12T20:03:32.317Z,66.50
2022-11-12T20:06:05.991Z,66.60
2022-11-12T20:08:33.338Z,66.60
2022-11-12T20:11:00.697Z,66.50
2022-11-12T20:13:28.252Z,66.50
2022-11-12T20:15:55.722Z,66.50
2022-11-12T20:18:23.353Z,66.50
2022-11-12T20:20:56.707Z,67.10
2022-11-12T20:23:25.019Z,66.50
2022-11-12T20:25:52.885Z,66.50
2022-11-12T20:28:20.002Z,66.50
2022-11-12T20:30:46.879Z,66.50
2022-11-12T20:33:14.241Z,66.50
2022-11-12T20:35:41.051Z,66.50
2022-11-12T20:38:07.926Z,66.40
2022-11-12T20:40:34.751Z,66.90
2022-11-12T20:43:01.536Z,66.30
2022-11-12T20:45:28.278Z,66.40
2022-11-12T20:47:56.151Z,66.20
2022-11-12T20:50:23.345Z,66.30
2022-11-12T20:52:50.278Z,66.30
2022-11-12T20:55:19.292Z,66.30
2022-11-12T20:57:46.348Z,66.20
2022-11-12T21:00:14.823Z,66.30
2022-11-12T21:02:43.976Z,66.20
2022-11-12T21:05:10.708Z,66.20
2022-11-12T21:07:37.449Z,66.10
2022-11-12T21:10:04.566Z,66.20
2022-11-12T21:12:33.833Z,66.20
2022-11-12T21:15:00.513Z,66.20
2022-11-12T21:17:27.665Z,66.10
2022-11-12T21:19:54.402Z,66.20
2022-11-12T21:22:21.156Z,66.10
2022-11-12T21:24:47.880Z,66.10
2022-11-12T21:27:14.679Z,66.10
2022-11-12T21:29:41.416Z,66.00
2022-11-12T21:32:08.216Z,66.00
2022-11-12T21:34:35.014Z,66.10
2022-11-12T21:37:01.861Z,66.00
2022-11-12T21:39:28.560Z,66.00
2022-11-12T21:41:55.340Z,65.90
2022-11-12T21:44:24.540Z,66.00
2022-11-12T21:46:51.273Z,66.00
2022-11-12T21:49:18.042Z,65.90
2022-11-12T21:51:44.772Z,65.90
2022-11-12T21:54:14.059Z,66.00
2022-11-12T21:56:41.999Z,65.90
2022-11-12T21:59:08.761Z,66.00
2022-11-12T22:01:35.510Z,66.00
2022-11-12T22:04:06.685Z,66.00
2022-11-12T22:06:37.449Z,65.90
2022-11-12T22:09:05.368Z,65.90
2022-11-12T22:11:32.150Z,66.00
2022-11-12T22:13:59.335Z,65.90
2022-11-12T22:16:29.197Z,65.90
2022-11-12T22:18:57.589Z,65.90
2022-11-12T22:21:27.219Z,65.90
2022-11-12T22:23:55.174Z,65.80
2022-11-12T22:26:25.251Z,65.80
2022-11-12T22:28:53.425Z,65.80
2022-11-12T22:31:22.723Z,65.80
2022-11-12T22:33:50.057Z,65.80
2022-11-12T22:36:21.764Z,65.70
2022-11-12T22:38:50.720Z,65.80
2022-11-12T22:41:20.005Z,65.80
2022-11-12T22:43:48.246Z,65.80
2022-11-12T22:46:16.054Z,65.80
2022-11-12T22:48:43.311Z,65.80
2022-11-12T22:51:14.308Z,65.80
2022-11-12T22:53:41.084Z,65.80
2022-11-12T22:56:11.981Z,65.70
2022-11-12T22:58:46.490Z,65.80
2022-11-12T23:01:24.768Z,65.70
2022-11-12T23:03:56.567Z,65.70
2022-11-12T23:06:24.311Z,65.70
2022-11-12T23:08:53.118Z,65.70
2022-11-12T23:11:25.941Z,65.70
2022-11-12T23:13:54.695Z,65.60
2022-11-12T23:16:27.715Z,65.70
2022-11-12T23:18:55.523Z,65.60
2022-11-12T23:21:25.207Z,65.50
2022-11-12T23:23:52.741Z,65.50
2022-11-12T23:26:24.453Z,65.70
2022-11-12T23:28:52.268Z,65.70
2022-11-12T23:31:25.382Z,65.60
2022-11-12T23:33:54.390Z,65.50
2022-11-12T23:36:22.656Z,65.60
2022-11-12T23:38:49.280Z,65.50
2022-11-12T23:41:19.136Z,65.50
2022-11-12T23:43:46.006Z,65.50
2022-11-12T23:46:12.930Z,65.40
2022-11-12T23:48:40.197Z,65.50
2022-11-12T23:51:15.526Z,65.50
2022-11-12T23:53:42.562Z,65.50
2022-11-12T23:56:12.406Z,65.50
2022-11-12T23:58:43.112Z,65.40
